Stortebeker — ZDEG7 — position and weather

sailwx.info

Track history (hours):
 
Tides and Currents Weather Stations Pressure Air Temp Water Temp Dewpoint Dewpoint Depression Visibility Wind Speed Wind Dir Waves Ship Positions

Stortebeker

Last reported at 2017-Dec-14 16:09 UTC. Time now 2017-Dec-17 06:33 UTC.
Position N 61°01' E 020°54'.

Length 82 m; draft 5.4 m.

Type: Cargo ship. MMSI: 236119000.

Date/timePositionNaut miles runAvg speedWind from/ knotsBaromVisibWave heightAir tempDewpointWater temp
2017-Dec-14 16:09N 61°01' E 020°54'1 9.8
2017-Dec-14 16:00N 61°02' E 020°55'1010.5
2017-Dec-14 15:01N 61°10' E 021°10'4 7.7
2017-Dec-14 14:30N 61°14' E 021°14'6 8.4
2017-Dec-14 13:47N 61°16' E 021°26'2 6.2
2017-Dec-14 13:28N 61°15' E 021°29'0 0.0
2017-Dec-14 13:00N 61°15' E 021°29'0 0.0
2017-Dec-14 12:30N 61°15' E 021°29'0 0.0
2017-Dec-14 11:57N 61°15' E 021°29'0 0.0
2017-Dec-14 11:29N 61°15' E 021°29'0 0.0
2017-Dec-14 10:58N 61°15' E 021°29'0 0.0
2017-Dec-14 10:30N 61°15' E 021°29'0 0.0
2017-Dec-14 09:59N 61°15' E 021°29'0 0.0
2017-Dec-14 09:29N 61°15' E 021°29'0 0.0
2017-Dec-14 08:58N 61°15' E 021°29'0 0.0
2017-Dec-14 08:30N 61°15' E 021°29'0 0.0
2017-Dec-14 07:59N 61°15' E 021°29'0 0.0
2017-Dec-14 07:22N 61°15' E 021°29'0 0.0
2017-Dec-14 06:58N 61°15' E 021°29'0 0.0
2017-Dec-14 06:27N 61°15' E 021°29'0 0.0
2017-Dec-14 05:59N 61°15' E 021°29'0 0.0
2017-Dec-14 05:29N 61°15' E 021°29'0 0.0
2017-Dec-14 04:58N 61°15' E 021°29'0 0.0
2017-Dec-14 04:28N 61°15' E 021°29'0 0.0
2017-Dec-14 04:00N 61°15' E 021°29'0 0.0
2017-Dec-14 03:26N 61°15' E 021°29'0 0.0
2017-Dec-14 02:59N 61°15' E 021°29'0 0.0
2017-Dec-14 02:28N 61°15' E 021°29'0 0.0
2017-Dec-14 01:57N 61°15' E 021°29'0 0.0
2017-Dec-14 01:30N 61°15' E 021°29'0 0.0
2017-Dec-14 01:00N 61°15' E 021°29'0 0.0
2017-Dec-14 00:30N 61°15' E 021°29'0 0.0
2017-Dec-13 23:57N 61°15' E 021°29'0 0.0
2017-Dec-13 23:26N 61°15' E 021°29'0 0.0
2017-Dec-13 22:11N 61°15' E 021°29'0 0.0
2017-Dec-13 21:55N 61°15' E 021°29'0 0.0
2017-Dec-13 21:30N 61°15' E 021°29'0 0.0
2017-Dec-13 20:59N 61°15' E 021°29'0 0.0
2017-Dec-13 20:29N 61°15' E 021°29'0 0.0
2017-Dec-13 19:58N 61°15' E 021°29'0 0.0
2017-Dec-13 19:28N 61°15' E 021°29'0 0.0
2017-Dec-13 18:58N 61°15' E 021°29'0 0.0
2017-Dec-13 18:28N 61°15' E 021°29'0 0.0
2017-Dec-13 17:58N 61°15' E 021°29'0 0.0
2017-Dec-13 17:28N 61°15' E 021°29'0 0.0
2017-Dec-13 16:58N 61°15' E 021°29'0 0.0
2017-Dec-13 16:28N 61°15' E 021°29'0 0.0
2017-Dec-13 15:58N 61°15' E 021°29'0 0.0
2017-Dec-13 15:28N 61°15' E 021°29'0 0.0
2017-Dec-13 14:59N 61°15' E 021°29'0 0.0
2017-Dec-13 14:27N 61°15' E 021°29'0 0.0
2017-Dec-13 13:59N 61°15' E 021°29'0 0.0
2017-Dec-13 13:28N 61°15' E 021°29'0 0.0
2017-Dec-13 12:59N 61°15' E 021°29'0 0.0
2017-Dec-13 12:26N 61°15' E 021°29'0 0.0
2017-Dec-13 11:59N 61°15' E 021°29'0 0.0
2017-Dec-13 11:28N 61°15' E 021°29'0 0.0
2017-Dec-13 10:58N 61°15' E 021°29'0 0.0
2017-Dec-13 10:28N 61°15' E 021°29'0 0.0
2017-Dec-13 09:58N 61°15' E 021°29'1 2.2
2017-Dec-13 09:30N 61°15' E 021°27'6 6.2
2017-Dec-13 08:36N 61°16' E 021°16'110.1
2017-Dec-13 08:30N 61°15' E 021°15'4 8.9
2017-Dec-13 08:00N 61°10' E 021°12'2 3.6
2017-Dec-13 07:29N 61°10' E 021°08'0 0.1
2017-Dec-13 06:58N 61°10' E 021°08'0 0.0
2017-Dec-13 06:27N 61°10' E 021°08'0 0.0
2017-Dec-13 05:56N 61°10' E 021°08'0 0.0
2017-Dec-13 05:28N 61°10' E 021°08'0 0.0
2017-Dec-13 04:58N 61°10' E 021°08'0 0.0
2017-Dec-13 04:28N 61°10' E 021°08'0 0.0
2017-Dec-13 03:53N 61°10' E 021°08'0 0.0
2017-Dec-13 03:29N 61°10' E 021°08'0 0.1
2017-Dec-13 02:58N 61°10' E 021°08'0 0.0
2017-Dec-13 02:30N 61°10' E 021°08'0 0.0
2017-Dec-13 01:58N 61°10' E 021°08'0 0.0
2017-Dec-13 01:28N 61°10' E 021°08'0 0.0
2017-Dec-13 00:58N 61°10' E 021°08'0 0.0
2017-Dec-13 00:29N 61°10' E 021°08'0 0.0
2017-Dec-12 23:58N 61°10' E 021°08'0 0.0
2017-Dec-12 23:29N 61°10' E 021°08'0 0.0
2017-Dec-12 22:59N 61°10' E 021°08'0 0.0
2017-Dec-12 22:23N 61°10' E 021°08'0 0.0
2017-Dec-12 22:00N 61°10' E 021°08'0 0.0
2017-Dec-12 21:30N 61°10' E 021°08'0 0.1
2017-Dec-12 20:56N 61°10' E 021°08'0 0.0
2017-Dec-12 20:27N 61°10' E 021°08'0 0.0
2017-Dec-12 19:53N 61°10' E 021°08'0 0.0
2017-Dec-12 19:20N 61°10' E 021°08'0 0.0
2017-Dec-12 18:48N 61°10' E 021°08'0 0.0
2017-Dec-12 18:30N 61°10' E 021°08'0 0.1
2017-Dec-12 17:59N 61°10' E 021°08'0 0.0
2017-Dec-12 17:30N 61°10' E 021°08'0 0.0
2017-Dec-12 16:58N 61°10' E 021°08'0 0.0
2017-Dec-12 16:30N 61°10' E 021°08'0 0.0
2017-Dec-12 16:00N 61°10' E 021°08'0 0.0
2017-Dec-12 15:30N 61°10' E 021°08'0 0.0
2017-Dec-12 15:00N 61°10' E 021°08'0 0.0
2017-Dec-12 14:30N 61°10' E 021°08'0 0.0
2017-Dec-12 14:00N 61°10' E 021°08'0 0.0
2017-Dec-12 13:30N 61°10' E 021°08'0 0.0
2017-Dec-12 12:57N 61°10' E 021°08'0 0.0
2017-Dec-12 12:30N 61°10' E 021°08'0 0.0
2017-Dec-12 12:00N 61°10' E 021°08'0 0.0
2017-Dec-12 11:28N 61°10' E 021°08'0 0.0
2017-Dec-12 11:00N 61°10' E 021°08'0 0.0
2017-Dec-12 10:29N 61°10' E 021°08'0 0.0
2017-Dec-12 09:58N 61°10' E 021°08'0 0.0
2017-Dec-12 09:29N 61°10' E 021°08'0 0.0
2017-Dec-12 08:55N 61°10' E 021°08'0 0.0
2017-Dec-12 08:28N 61°10' E 021°08'0 0.0
2017-Dec-12 08:00N 61°10' E 021°08'0 0.0
2017-Dec-12 07:30N 61°10' E 021°08'0 0.0
2017-Dec-12 06:51N 61°10' E 021°08'0 0.0
2017-Dec-12 06:28N 61°10' E 021°08'0 0.0
2017-Dec-12 06:00N 61°10' E 021°08'0 0.0
2017-Dec-12 05:20N 61°10' E 021°08'0 0.0
2017-Dec-12 04:57N 61°10' E 021°08'0 0.0
2017-Dec-12 04:30N 61°10' E 021°08'0 0.0
2017-Dec-12 03:59N 61°10' E 021°08'0 0.0
2017-Dec-12 03:30N 61°10' E 021°08'0 0.0
2017-Dec-12 02:59N 61°10' E 021°08'0 0.0
2017-Dec-12 02:30N 61°10' E 021°08'0 0.0
2017-Dec-12 01:55N 61°10' E 021°08'0 0.0
2017-Dec-12 01:30N 61°10' E 021°08'0 0.0
2017-Dec-12 01:00N 61°10' E 021°08'0 0.0
2017-Dec-12 00:30N 61°10' E 021°08'0 0.0
2017-Dec-11 23:57N 61°10' E 021°08'0 0.0
2017-Dec-11 23:30N 61°10' E 021°08'0 0.0
2017-Dec-11 22:59N 61°10' E 021°08'0 0.0
2017-Dec-11 22:27N 61°10' E 021°08'0 0.0
2017-Dec-11 21:59N 61°10' E 021°08'0 0.0
2017-Dec-11 21:29N 61°10' E 021°08'0 0.0
2017-Dec-11 21:00N 61°10' E 021°08'0 0.0
2017-Dec-11 20:30N 61°10' E 021°08'0 0.0
2017-Dec-11 20:00N 61°10' E 021°08'0 0.0
2017-Dec-11 19:30N 61°10' E 021°08'0 0.0
2017-Dec-11 19:00N 61°10' E 021°08'0 0.0
2017-Dec-11 18:30N 61°10' E 021°08'0 0.0
2017-Dec-11 17:58N 61°10' E 021°08'0 0.2
2017-Dec-11 17:29N 61°10' E 021°08'4 7.8
2017-Dec-11 17:00N 61°09' E 021°01'74 9.3
2017-Dec-11 09:00N 60°22' E 019°02'5 9.7
2017-Dec-11 08:30N 60°17' E 019°02'5 9.8
2017-Dec-11 08:01N 60°13' E 019°05'5 9.8
2017-Dec-11 07:31N 60°09' E 019°11'5 9.0
2017-Dec-11 07:01N 60°05' E 019°17'5 9.9
2017-Dec-11 06:30N 60°01' E 019°23'9 9.8
2017-Dec-11 05:37N 59°55' E 019°34'1 9.8
2017-Dec-11 05:29N 59°54' E 019°36'  
Track history (hours):
 
Tides and Currents Weather Stations Pressure Air Temp Water Temp Dewpoint Dewpoint Depression Visibility Wind Speed Wind Dir Waves Ship Positions

Stortebeker

Last reported at 2017-Dec-14 16:09 UTC. Time now 2017-Dec-17 06:33 UTC.
Position N 61°01' E 020°54'.

Length 82 m; draft 5.4 m.

Type: Cargo ship. MMSI: 236119000.

Date/timePositionNaut miles runAvg speedWind from/ knotsBaromVisibWave heightAir tempDewpointWater temp
2017-Dec-14 16:09N 61°01' E 020°54'1 9.8
2017-Dec-14 16:00N 61°02' E 020°55'1010.5
2017-Dec-14 15:01N 61°10' E 021°10'4 7.7
2017-Dec-14 14:30N 61°14' E 021°14'6 8.4
2017-Dec-14 13:47N 61°16' E 021°26'2 6.2
2017-Dec-14 13:28N 61°15' E 021°29'0 0.0
2017-Dec-14 13:00N 61°15' E 021°29'0 0.0
2017-Dec-14 12:30N 61°15' E 021°29'0 0.0
2017-Dec-14 11:57N 61°15' E 021°29'0 0.0
2017-Dec-14 11:29N 61°15' E 021°29'0 0.0
2017-Dec-14 10:58N 61°15' E 021°29'0 0.0
2017-Dec-14 10:30N 61°15' E 021°29'0 0.0
2017-Dec-14 09:59N 61°15' E 021°29'0 0.0
2017-Dec-14 09:29N 61°15' E 021°29'0 0.0
2017-Dec-14 08:58N 61°15' E 021°29'0 0.0
2017-Dec-14 08:30N 61°15' E 021°29'0 0.0
2017-Dec-14 07:59N 61°15' E 021°29'0 0.0
2017-Dec-14 07:22N 61°15' E 021°29'0 0.0
2017-Dec-14 06:58N 61°15' E 021°29'0 0.0
2017-Dec-14 06:27N 61°15' E 021°29'0 0.0
2017-Dec-14 05:59N 61°15' E 021°29'0 0.0
2017-Dec-14 05:29N 61°15' E 021°29'0 0.0
2017-Dec-14 04:58N 61°15' E 021°29'0 0.0
2017-Dec-14 04:28N 61°15' E 021°29'0 0.0
2017-Dec-14 04:00N 61°15' E 021°29'0 0.0
2017-Dec-14 03:26N 61°15' E 021°29'0 0.0
2017-Dec-14 02:59N 61°15' E 021°29'0 0.0
2017-Dec-14 02:28N 61°15' E 021°29'0 0.0
2017-Dec-14 01:57N 61°15' E 021°29'0 0.0
2017-Dec-14 01:30N 61°15' E 021°29'0 0.0
2017-Dec-14 01:00N 61°15' E 021°29'0 0.0
2017-Dec-14 00:30N 61°15' E 021°29'0 0.0
2017-Dec-13 23:57N 61°15' E 021°29'0 0.0
2017-Dec-13 23:26N 61°15' E 021°29'0 0.0
2017-Dec-13 22:11N 61°15' E 021°29'0 0.0
2017-Dec-13 21:55N 61°15' E 021°29'0 0.0
2017-Dec-13 21:30N 61°15' E 021°29'0 0.0
2017-Dec-13 20:59N 61°15' E 021°29'0 0.0
2017-Dec-13 20:29N 61°15' E 021°29'0 0.0
2017-Dec-13 19:58N 61°15' E 021°29'0 0.0
2017-Dec-13 19:28N 61°15' E 021°29'0 0.0
2017-Dec-13 18:58N 61°15' E 021°29'0 0.0
2017-Dec-13 18:28N 61°15' E 021°29'0 0.0
2017-Dec-13 17:58N 61°15' E 021°29'0 0.0
2017-Dec-13 17:28N 61°15' E 021°29'0 0.0
2017-Dec-13 16:58N 61°15' E 021°29'0 0.0
2017-Dec-13 16:28N 61°15' E 021°29'0 0.0
2017-Dec-13 15:58N 61°15' E 021°29'0 0.0
2017-Dec-13 15:28N 61°15' E 021°29'0 0.0
2017-Dec-13 14:59N 61°15' E 021°29'0 0.0
2017-Dec-13 14:27N 61°15' E 021°29'0 0.0
2017-Dec-13 13:59N 61°15' E 021°29'0 0.0
2017-Dec-13 13:28N 61°15' E 021°29'0 0.0
2017-Dec-13 12:59N 61°15' E 021°29'0 0.0
2017-Dec-13 12:26N 61°15' E 021°29'0 0.0
2017-Dec-13 11:59N 61°15' E 021°29'0 0.0
2017-Dec-13 11:28N 61°15' E 021°29'0 0.0
2017-Dec-13 10:58N 61°15' E 021°29'0 0.0
2017-Dec-13 10:28N 61°15' E 021°29'0 0.0
2017-Dec-13 09:58N 61°15' E 021°29'1 2.2
2017-Dec-13 09:30N 61°15' E 021°27'6 6.2
2017-Dec-13 08:36N 61°16' E 021°16'110.1
2017-Dec-13 08:30N 61°15' E 021°15'4 8.9
2017-Dec-13 08:00N 61°10' E 021°12'2 3.6
2017-Dec-13 07:29N 61°10' E 021°08'0 0.1
2017-Dec-13 06:58N 61°10' E 021°08'0 0.0
2017-Dec-13 06:27N 61°10' E 021°08'0 0.0
2017-Dec-13 05:56N 61°10' E 021°08'0 0.0
2017-Dec-13 05:28N 61°10' E 021°08'0 0.0
2017-Dec-13 04:58N 61°10' E 021°08'0 0.0
2017-Dec-13 04:28N 61°10' E 021°08'0 0.0
2017-Dec-13 03:53N 61°10' E 021°08'0 0.0
2017-Dec-13 03:29N 61°10' E 021°08'0 0.1
2017-Dec-13 02:58N 61°10' E 021°08'0 0.0
2017-Dec-13 02:30N 61°10' E 021°08'0 0.0
2017-Dec-13 01:58N 61°10' E 021°08'0 0.0
2017-Dec-13 01:28N 61°10' E 021°08'0 0.0
2017-Dec-13 00:58N 61°10' E 021°08'0 0.0
2017-Dec-13 00:29N 61°10' E 021°08'0 0.0
2017-Dec-12 23:58N 61°10' E 021°08'0 0.0
2017-Dec-12 23:29N 61°10' E 021°08'0 0.0
2017-Dec-12 22:59N 61°10' E 021°08'0 0.0
2017-Dec-12 22:23N 61°10' E 021°08'0 0.0
2017-Dec-12 22:00N 61°10' E 021°08'0 0.0
2017-Dec-12 21:30N 61°10' E 021°08'0 0.1
2017-Dec-12 20:56N 61°10' E 021°08'0 0.0
2017-Dec-12 20:27N 61°10' E 021°08'0 0.0
2017-Dec-12 19:53N 61°10' E 021°08'0 0.0
2017-Dec-12 19:20N 61°10' E 021°08'0 0.0
2017-Dec-12 18:48N 61°10' E 021°08'0 0.0
2017-Dec-12 18:30N 61°10' E 021°08'0 0.1
2017-Dec-12 17:59N 61°10' E 021°08'0 0.0
2017-Dec-12 17:30N 61°10' E 021°08'0 0.0
2017-Dec-12 16:58N 61°10' E 021°08'0 0.0
2017-Dec-12 16:30N 61°10' E 021°08'0 0.0
2017-Dec-12 16:00N 61°10' E 021°08'0 0.0
2017-Dec-12 15:30N 61°10' E 021°08'0 0.0
2017-Dec-12 15:00N 61°10' E 021°08'0 0.0
2017-Dec-12 14:30N 61°10' E 021°08'0 0.0
2017-Dec-12 14:00N 61°10' E 021°08'0 0.0
2017-Dec-12 13:30N 61°10' E 021°08'0 0.0
2017-Dec-12 12:57N 61°10' E 021°08'0 0.0
2017-Dec-12 12:30N 61°10' E 021°08'0 0.0
2017-Dec-12 12:00N 61°10' E 021°08'0 0.0
2017-Dec-12 11:28N 61°10' E 021°08'0 0.0
2017-Dec-12 11:00N 61°10' E 021°08'0 0.0
2017-Dec-12 10:29N 61°10' E 021°08'0 0.0
2017-Dec-12 09:58N 61°10' E 021°08'0 0.0
2017-Dec-12 09:29N 61°10' E 021°08'0 0.0
2017-Dec-12 08:55N 61°10' E 021°08'0 0.0
2017-Dec-12 08:28N 61°10' E 021°08'0 0.0
2017-Dec-12 08:00N 61°10' E 021°08'0 0.0
2017-Dec-12 07:30N 61°10' E 021°08'0 0.0
2017-Dec-12 06:51N 61°10' E 021°08'0 0.0
2017-Dec-12 06:28N 61°10' E 021°08'0 0.0
2017-Dec-12 06:00N 61°10' E 021°08'0 0.0
2017-Dec-12 05:20N 61°10' E 021°08'0 0.0
2017-Dec-12 04:57N 61°10' E 021°08'0 0.0
2017-Dec-12 04:30N 61°10' E 021°08'0 0.0
2017-Dec-12 03:59N 61°10' E 021°08'0 0.0
2017-Dec-12 03:30N 61°10' E 021°08'0 0.0
2017-Dec-12 02:59N 61°10' E 021°08'0 0.0
2017-Dec-12 02:30N 61°10' E 021°08'0 0.0
2017-Dec-12 01:55N 61°10' E 021°08'0 0.0
2017-Dec-12 01:30N 61°10' E 021°08'0 0.0
2017-Dec-12 01:00N 61°10' E 021°08'0 0.0
2017-Dec-12 00:30N 61°10' E 021°08'0 0.0
2017-Dec-11 23:57N 61°10' E 021°08'0 0.0
2017-Dec-11 23:30N 61°10' E 021°08'0 0.0
2017-Dec-11 22:59N 61°10' E 021°08'0 0.0
2017-Dec-11 22:27N 61°10' E 021°08'0 0.0
2017-Dec-11 21:59N 61°10' E 021°08'0 0.0
2017-Dec-11 21:29N 61°10' E 021°08'0 0.0
2017-Dec-11 21:00N 61°10' E 021°08'0 0.0
2017-Dec-11 20:30N 61°10' E 021°08'0 0.0
2017-Dec-11 20:00N 61°10' E 021°08'0 0.0
2017-Dec-11 19:30N 61°10' E 021°08'0 0.0
2017-Dec-11 19:00N 61°10' E 021°08'0 0.0
2017-Dec-11 18:30N 61°10' E 021°08'0 0.0
2017-Dec-11 17:58N 61°10' E 021°08'0 0.2
2017-Dec-11 17:29N 61°10' E 021°08'4 7.8
2017-Dec-11 17:00N 61°09' E 021°01'74 9.3
2017-Dec-11 09:00N 60°22' E 019°02'5 9.7
2017-Dec-11 08:30N 60°17' E 019°02'5 9.8
2017-Dec-11 08:01N 60°13' E 019°05'5 9.8
2017-Dec-11 07:31N 60°09' E 019°11'5 9.0
2017-Dec-11 07:01N 60°05' E 019°17'5 9.9
2017-Dec-11 06:30N 60°01' E 019°23'9 9.8
2017-Dec-11 05:37N 59°55' E 019°34'1 9.8
2017-Dec-11 05:29N 59°54' E 019°36'  

Dump ship's entire track history